Terminal Aerodrome Forecast
Issued by NWS Bismarck, ND

Home | Current Version | Previous Version | Text Only | Print | Product List | Glossary On
Versions: 1 2 3 4 5 6 7 8 9 10 11 12 13 14 15 16 17 18 19 20 21 22 23
000
FTUS43 KBIS 260521
TAFBIS
TAF
KBIS 260521Z 2606/2706 00000KT P6SM VCSH SCT020 OVC060
     FM260800 00000KT P6SM VCSH SCT020 OVC030
     FM261400 00000KT P6SM BKN015 OVC020
     FM261700 VRB03KT P6SM SCT025 OVC035
     FM262300 28004KT P6SM FEW045 SCT060=

USA.gov is the U.S. government's official web portal to all federal, state and local government web resources and services.